Time;durP1;ratioP1;P1;durP2;ratioP2;P2;SDS_P1;SDS_P2;PMS_P1;PMS_P2;Temp;Humidity;BMP_temperature;BMP_pressure;BME280_temperature;BME280_humidity;BME280_pressure;Samples;Min_cycle;Max_cycle;Signal;HPM_P1;HPM_P2
2021/09/19 00:00:09;;;;;;;;;;;27.00;99.90;;;;;;1905458;75;20225;-84
2021/09/19 00:02:38;;;;;;;;;;;27.00;99.90;;;;;;1892308;74;20174;-84
2021/09/19 00:05:10;;;;;;;;;;;27.00;99.90;;;;;;1899523;75;20276;-84
2021/09/19 00:07:40;;;;;;;;;;;27.10;99.90;;;;;;1901040;74;20194;-84
2021/09/19 00:10:11;;;;;;;;;;;27.20;99.90;;;;;;1905787;75;20222;-83
2021/09/19 00:12:41;;;;;;;;;;;27.20;99.90;;;;;;1896913;74;20150;-85
2021/09/19 00:15:11;;;;;;;;;;;27.20;99.90;;;;;;1897274;74;20218;-84
2021/09/19 00:17:41;;;;;;;;;;;27.20;99.90;;;;;;1899605;75;20177;-85
2021/09/19 00:20:12;;;;;;;;;;;27.30;99.90;;;;;;1893337;74;20515;-84
2021/09/19 00:22:42;;;;;;;;;;;27.30;99.90;;;;;;1895920;74;20246;-85
2021/09/19 00:25:12;;;;;;;;;;;27.30;99.90;;;;;;1902884;74;20122;-84
2021/09/19 00:27:42;;;;;;;;;;;27.30;99.90;;;;;;1893047;75;20148;-85
2021/09/19 00:32:48;;;;;;;;;;;27.40;99.90;;;;;;1858528;75;20169;-83
2021/09/19 00:35:17;;;;;;;;;;;27.40;99.90;;;;;;1900089;74;20171;-83
2021/09/19 00:37:46;;;;;;;;;;;27.50;99.90;;;;;;1891269;75;20395;-83
2021/09/19 00:40:16;;;;;;;;;;;27.60;99.90;;;;;;1890765;74;20604;-85
2021/09/19 00:42:46;;;;;;;;;;;27.60;99.90;;;;;;1890989;75;20189;-84
2021/09/19 00:45:17;;;;;;;;;;;27.60;99.90;;;;;;1904681;75;20209;-83
2021/09/19 00:47:48;;;;;;;;;;;27.70;99.90;;;;;;1900778;74;20181;-84
2021/09/19 00:50:20;;;;;;;;;;;27.70;99.90;;;;;;1887558;74;20158;-84
2021/09/19 00:52:50;;;;;;;;;;;27.80;99.90;;;;;;1895726;74;20473;-83
2021/09/19 00:55:20;;;;;;;;;;;27.90;99.90;;;;;;1905564;74;20208;-83
2021/09/19 00:57:51;;;;;;;;;;;28.00;99.90;;;;;;1896635;74;20143;-84
2021/09/19 01:00:22;;;;;;;;;;;28.00;99.90;;;;;;1897243;75;20135;-84
2021/09/19 01:02:53;;;;;;;;;;;28.00;99.90;;;;;;1905556;74;20213;-84
2021/09/19 01:05:23;;;;;;;;;;;28.00;99.90;;;;;;1887865;75;20184;-84
2021/09/19 01:13:27;;;;;;;;;;;28.20;99.90;;;;;;1819932;76;20168;-85
2021/09/19 01:16:07;;;;;;;;;;;28.20;99.90;;;;;;1835536;76;20217;-84
2021/09/19 01:18:30;;;;;;;;;;;28.20;99.90;;;;;;1841763;77;20551;-85
2021/09/19 01:21:06;;;;;;;;;;;28.30;99.90;;;;;;1831439;73;20233;-85
2021/09/19 01:23:37;;;;;;;;;;;28.30;99.90;;;;;;1842510;78;20275;-86
2021/09/19 01:26:06;;;;;;;;;;;28.30;99.90;;;;;;1833469;76;20403;-83
2021/09/19 01:28:42;;;;;;;;;;;28.40;99.90;;;;;;1847963;76;20666;-85
2021/09/19 01:31:21;;;;;;;;;;;28.40;99.90;;;;;;1856757;76;20211;-84
2021/09/19 01:34:02;;;;;;;;;;;28.50;99.90;;;;;;1841630;76;20243;-85
2021/09/19 01:36:34;;;;;;;;;;;28.50;99.90;;;;;;1852338;76;20203;-85
2021/09/19 01:39:05;;;;;;;;;;;28.50;99.90;;;;;;1844669;76;20191;-87
2021/09/19 01:41:37;;;;;;;;;;;28.60;99.90;;;;;;1843021;76;20156;-85
2021/09/19 01:44:12;;;;;;;;;;;28.60;99.90;;;;;;1846697;76;20255;-85
2021/09/19 01:46:38;;;;;;;;;;;28.70;99.90;;;;;;1844046;76;20253;-87
2021/09/19 01:49:11;;;;;;;;;;;28.80;99.90;;;;;;1902189;75;20197;-86
2021/09/19 01:51:41;;;;;;;;;;;28.80;99.90;;;;;;1902557;74;20181;-86
2021/09/19 01:54:16;;;;;;;;;;;28.90;99.90;;;;;;1903177;75;20457;-88
2021/09/19 01:56:58;;;;;;;;;;;28.90;99.90;;;;;;1865354;75;20454;-88
2021/09/19 01:59:28;;;;;;;;;;;29.00;99.90;;;;;;1832103;76;20272;-86
2021/09/19 02:02:12;;;;;;;;;;;29.10;99.90;;;;;;1861014;75;20627;-86
2021/09/19 02:04:37;;;;;;;;;;;29.20;99.90;;;;;;1850720;76;20198;-87
2021/09/19 02:07:21;;;;;;;;;;;29.30;99.90;;;;;;1896836;74;20211;-85
2021/09/19 02:12:59;;;;;;;;;;;29.40;99.90;;;;;;1906047;74;20173;-86
2021/09/19 02:18:26;;;;;;;;;;;29.60;99.80;;;;;;1789114;78;20223;-84
2021/09/19 02:20:56;;;;;;;;;;;29.70;99.90;;;;;;1802253;77;20477;-86
2021/09/19 02:23:26;;;;;;;;;;;29.80;99.90;;;;;;1810682;77;20265;-87
2021/09/19 02:25:58;;;;;;;;;;;29.90;99.70;;;;;;1803440;76;20176;-87
2021/09/19 02:31:57;;;;;;;;;;;30.00;98.60;;;;;;1820771;77;20206;-87
2021/09/19 02:34:26;;;;;;;;;;;30.20;99.20;;;;;;1763418;79;20519;-85
2021/09/19 02:37:03;;;;;;;;;;;30.30;98.90;;;;;;1742945;80;20210;-85
2021/09/19 02:39:32;;;;;;;;;;;30.40;98.00;;;;;;1746803;80;20180;-84
2021/09/19 02:42:02;;;;;;;;;;;30.50;97.90;;;;;;1795046;78;20251;-84
2021/09/19 02:44:31;;;;;;;;;;;30.70;98.30;;;;;;1800327;78;20148;-86
2021/09/19 02:47:04;;;;;;;;;;;30.80;97.70;;;;;;1798283;77;20184;-85
2021/09/19 02:49:35;;;;;;;;;;;30.90;96.90;;;;;;1800744;78;20183;-84
2021/09/19 02:52:09;;;;;;;;;;;30.90;96.50;;;;;;1800148;78;20199;-84
2021/09/19 02:54:55;;;;;;;;;;;31.00;96.40;;;;;;1777358;79;20177;-84
2021/09/19 02:57:34;;;;;;;;;;;31.20;96.60;;;;;;1791277;78;20623;-86
2021/09/19 03:00:05;;;;;;;;;;;31.30;96.10;;;;;;1781220;79;20242;-85
2021/09/19 03:05:40;;;;;;;;;;;31.50;96.10;;;;;;1783541;79;20286;-85
2021/09/19 03:14:41;;;;;;;;;;;31.90;94.00;;;;;;1827822;77;20148;-85
2021/09/19 03:17:23;;;;;;;;;;;32.00;94.90;;;;;;1827020;78;20147;-85
2021/09/19 03:20:01;;;;;;;;;;;32.10;94.90;;;;;;1827171;77;20485;-85
2021/09/19 03:22:36;;;;;;;;;;;32.20;95.20;;;;;;1821712;77;20184;-85
2021/09/19 03:25:05;;;;;;;;;;;32.20;95.10;;;;;;1828172;78;20235;-86
2021/09/19 03:27:35;;;;;;;;;;;32.30;94.50;;;;;;1828586;77;20213;-85
2021/09/19 03:30:07;;;;;;;;;;;32.40;92.50;;;;;;1828132;78;20301;-86
2021/09/19 03:32:37;;;;;;;;;;;32.40;93.40;;;;;;1834734;76;20190;-86
2021/09/19 03:35:07;;;;;;;;;;;32.50;94.20;;;;;;1829606;76;20197;-85
2021/09/19 03:37:40;;;;;;;;;;;32.60;95.30;;;;;;1848128;76;20245;-84
2021/09/19 03:40:10;;;;;;;;;;;32.70;95.30;;;;;;1830604;78;20219;-86
2021/09/19 03:48:20;;;;;;;;;;;32.90;93.80;;;;;;1802219;78;20141;-84
2021/09/19 03:54:12;;;;;;;;;;;33.10;93.60;;;;;;1798013;78;20217;-86
2021/09/19 03:56:41;;;;;;;;;;;33.20;95.40;;;;;;1836286;77;20229;-84
2021/09/19 03:59:11;;;;;;;;;;;33.20;94.20;;;;;;1823813;77;20176;-85
2021/09/19 04:01:40;;;;;;;;;;;33.30;94.30;;;;;;1807221;77;20268;-85
2021/09/19 04:04:10;;;;;;;;;;;33.40;93.70;;;;;;1811248;77;20174;-85
2021/09/19 04:09:38;;;;;;;;;;;33.50;93.80;;;;;;1807042;78;20451;-85
2021/09/19 04:12:07;;;;;;;;;;;33.50;94.60;;;;;;1821226;78;20172;-86
2021/09/19 04:14:37;;;;;;;;;;;33.50;90.20;;;;;;1825795;77;20297;-86
2021/09/19 04:17:06;;;;;;;;;;;33.40;92.60;;;;;;1817547;78;20212;-87
2021/09/19 04:19:36;;;;;;;;;;;33.40;92.70;;;;;;1809616;78;20243;-85
2021/09/19 04:22:06;;;;;;;;;;;33.40;92.00;;;;;;1768082;79;20256;-85
2021/09/19 04:24:37;;;;;;;;;;;33.50;92.00;;;;;;1817491;77;20257;-85
2021/09/19 04:27:07;;;;;;;;;;;33.70;91.40;;;;;;1808498;77;20180;-84
2021/09/19 04:32:46;;;;;;;;;;;33.80;92.20;;;;;;1814428;77;20212;-84
2021/09/19 04:35:16;;;;;;;;;;;33.90;92.50;;;;;;1848051;75;20178;-85
2021/09/19 04:37:46;;;;;;;;;;;33.90;93.20;;;;;;1828943;77;20163;-86
2021/09/19 04:40:15;;;;;;;;;;;33.90;92.80;;;;;;1810617;76;20246;-84
2021/09/19 04:42:46;;;;;;;;;;;34.00;92.50;;;;;;1845502;76;20249;-84
2021/09/19 04:47:57;;;;;;;;;;;34.10;93.20;;;;;;1763640;80;20207;-84
2021/09/19 04:53:19;;;;;;;;;;;34.10;91.40;;;;;;1751472;81;20197;-85
2021/09/19 04:55:49;;;;;;;;;;;34.20;90.20;;;;;;1732648;82;20184;-83
2021/09/19 04:58:19;;;;;;;;;;;34.30;90.80;;;;;;1801083;78;20172;-84
2021/09/19 05:00:49;;;;;;;;;;;34.30;90.10;;;;;;1821544;76;20282;-84
2021/09/19 05:03:18;;;;;;;;;;;34.30;86.60;;;;;;1821872;78;20213;-85
2021/09/19 05:05:49;;;;;;;;;;;34.20;87.10;;;;;;1861172;76;20281;-83
2021/09/19 05:08:19;;;;;;;;;;;34.20;89.70;;;;;;1837728;78;20182;-84
2021/09/19 05:11:01;;;;;;;;;;;34.30;87.20;;;;;;1824750;78;20150;-85
2021/09/19 05:13:37;;;;;;;;;;;34.30;85.10;;;;;;1796123;78;20180;-85
2021/09/19 05:16:06;;;;;;;;;;;34.30;89.50;;;;;;1791640;78;20340;-85
2021/09/19 05:18:36;;;;;;;;;;;34.40;90.20;;;;;;1729727;81;20282;-84
2021/09/19 05:21:08;;;;;;;;;;;34.50;91.10;;;;;;1782202;79;20320;-84
2021/09/19 05:23:37;;;;;;;;;;;34.50;90.30;;;;;;1778588;79;20281;-84
2021/09/19 05:26:07;;;;;;;;;;;34.50;88.90;;;;;;1791179;79;20240;-85
2021/09/19 05:28:40;;;;;;;;;;;34.40;90.00;;;;;;1815705;77;20196;-87
2021/09/19 05:33:53;;;;;;;;;;;34.30;84.10;;;;;;1778773;78;20180;-87
2021/09/19 05:36:22;;;;;;;;;;;34.20;88.50;;;;;;1785552;79;20207;-86
2021/09/19 05:38:55;;;;;;;;;;;34.10;87.90;;;;;;1773735;80;20352;-85
2021/09/19 05:41:24;;;;;;;;;;;34.20;82.60;;;;;;1791368;79;20211;-86
2021/09/19 05:43:54;;;;;;;;;;;34.20;83.20;;;;;;1790234;79;20262;-87
2021/09/19 05:46:24;;;;;;;;;;;34.10;85.50;;;;;;1788573;78;20211;-86
2021/09/19 05:48:54;;;;;;;;;;;34.00;89.00;;;;;;1798351;80;20263;-85
2021/09/19 05:51:24;;;;;;;;;;;33.90;89.10;;;;;;1790150;79;20321;-85
2021/09/19 05:53:54;;;;;;;;;;;33.80;86.70;;;;;;1819010;78;20408;-86
2021/09/19 05:56:23;;;;;;;;;;;33.70;89.60;;;;;;1839692;78;20476;-86
2021/09/19 05:58:54;;;;;;;;;;;33.70;87.20;;;;;;1840037;78;20162;-86
2021/09/19 06:01:24;;;;;;;;;;;33.50;90.50;;;;;;1840422;76;20184;-86
2021/09/19 06:03:54;;;;;;;;;;;34.00;90.90;;;;;;1849221;76;20272;-86
2021/09/19 06:06:27;;;;;;;;;;;33.30;90.90;;;;;;1843424;77;20521;-87
2021/09/19 06:08:57;;;;;;;;;;;33.20;90.80;;;;;;1837516;76;20228;-86
2021/09/19 06:11:26;;;;;;;;;;;33.10;91.90;;;;;;1861647;76;20166;-86
2021/09/19 06:13:56;;;;;;;;;;;33.00;90.90;;;;;;1873461;77;20173;-87
2021/09/19 06:16:26;;;;;;;;;;;32.80;90.90;;;;;;1873298;77;20196;-86
2021/09/19 06:22:19;;;;;;;;;;;32.50;92.30;;;;;;1869027;75;20184;-88
2021/09/19 06:24:48;;;;;;;;;;;32.40;92.40;;;;;;1859306;77;20411;-87
2021/09/19 06:27:18;;;;;;;;;;;32.30;92.50;;;;;;1867305;74;20271;-87
2021/09/19 06:29:50;;;;;;;;;;;32.20;93.00;;;;;;1867051;75;20526;-85
2021/09/19 06:32:19;;;;;;;;;;;32.20;93.50;;;;;;1879124;74;20183;-85
2021/09/19 06:34:49;;;;;;;;;;;32.10;93.70;;;;;;1848236;76;20119;-84
2021/09/19 06:37:19;;;;;;;;;;;32.00;93.60;;;;;;1849883;76;20121;-84
2021/09/19 06:39:49;;;;;;;;;;;31.90;93.40;;;;;;1857175;77;20251;-85
2021/09/19 06:42:18;;;;;;;;;;;31.90;93.60;;;;;;1857512;77;20177;-87
2021/09/19 06:44:49;;;;;;;;;;;31.80;93.80;;;;;;1855187;76;20181;-84
2021/09/19 06:47:19;;;;;;;;;;;31.80;93.80;;;;;;1847397;76;20213;-85
2021/09/19 06:49:50;;;;;;;;;;;31.70;94.20;;;;;;1856496;76;20169;-86
2021/09/19 06:52:21;;;;;;;;;;;31.70;94.60;;;;;;1861084;76;20180;-85
2021/09/19 06:54:53;;;;;;;;;;;31.60;95.90;;;;;;1861303;75;20230;-86
2021/09/19 06:57:22;;;;;;;;;;;31.60;96.30;;;;;;1886863;75;20146;-86
2021/09/19 06:59:51;;;;;;;;;;;31.50;96.30;;;;;;1867852;75;20533;-87
2021/09/19 07:02:21;;;;;;;;;;;31.30;96.40;;;;;;1865203;75;20197;-85
2021/09/19 07:04:51;;;;;;;;;;;31.20;97.30;;;;;;1853806;76;20165;-85
2021/09/19 07:10:15;;;;;;;;;;;31.00;98.20;;;;;;1834493;76;20226;-85
2021/09/19 07:12:44;;;;;;;;;;;30.90;98.60;;;;;;1820171;76;20287;-85
2021/09/19 07:15:15;;;;;;;;;;;30.80;98.60;;;;;;1825752;76;20171;-84
2021/09/19 07:23:47;;;;;;;;;;;30.40;98.80;;;;;;1812722;77;20162;-86
2021/09/19 07:26:27;;;;;;;;;;;30.40;99.40;;;;;;1822944;75;20195;-85
2021/09/19 07:32:21;;;;;;;;;;;30.20;99.90;;;;;;1844835;77;20162;-85
2021/09/19 07:34:58;;;;;;;;;;;30.10;99.90;;;;;;1848467;77;20268;-86
2021/09/19 07:37:25;;;;;;;;;;;30.00;99.90;;;;;;1819472;78;20207;-84
2021/09/19 07:39:56;;;;;;;;;;;29.90;99.90;;;;;;1799531;79;20269;-86
2021/09/19 07:42:26;;;;;;;;;;;29.90;99.90;;;;;;1822870;77;20267;-85
2021/09/19 07:44:56;;;;;;;;;;;29.80;99.90;;;;;;1830088;77;20234;-86
2021/09/19 07:47:30;;;;;;;;;;;29.80;99.90;;;;;;1859470;75;20224;-88
2021/09/19 07:50:00;;;;;;;;;;;29.80;99.90;;;;;;1869915;76;20203;-87
2021/09/19 07:52:33;;;;;;;;;;;29.80;99.90;;;;;;1859022;76;20141;-86
2021/09/19 07:55:18;;;;;;;;;;;29.70;99.90;;;;;;1872959;75;20168;-87
2021/09/19 07:57:49;;;;;;;;;;;29.60;99.90;;;;;;1878187;75;20199;-85
2021/09/19 08:00:19;;;;;;;;;;;29.50;99.90;;;;;;1865084;75;20203;-86
2021/09/19 08:02:49;;;;;;;;;;;29.40;99.90;;;;;;1872721;75;20482;-86
2021/09/19 08:05:20;;;;;;;;;;;29.30;99.90;;;;;;1854945;75;20396;-87
2021/09/19 08:11:06;;;;;;;;;;;29.20;99.90;;;;;;1872994;75;20274;-86
2021/09/19 08:13:34;;;;;;;;;;;29.10;99.90;;;;;;1874382;77;20129;-85
2021/09/19 08:19:01;;;;;;;;;;;28.90;99.90;;;;;;1857883;75;20224;-85
2021/09/19 08:21:34;;;;;;;;;;;28.80;99.90;;;;;;1818156;75;20245;-86
2021/09/19 08:24:14;;;;;;;;;;;28.70;99.90;;;;;;1838318;75;20241;-85
2021/09/19 08:26:43;;;;;;;;;;;28.70;99.90;;;;;;1831281;76;20264;-87
2021/09/19 08:29:14;;;;;;;;;;;28.60;99.90;;;;;;1828118;77;20853;-86
2021/09/19 08:31:45;;;;;;;;;;;28.50;99.90;;;;;;1849725;76;20141;-86
2021/09/19 08:34:15;;;;;;;;;;;28.40;99.90;;;;;;1861066;77;20176;-85
2021/09/19 08:36:45;;;;;;;;;;;28.40;99.90;;;;;;1860675;77;20367;-85
2021/09/19 08:39:14;;;;;;;;;;;28.30;99.90;;;;;;1861279;77;20203;-86
2021/09/19 08:41:49;;;;;;;;;;;28.30;99.90;;;;;;1860947;77;20184;-84
2021/09/19 08:44:15;;;;;;;;;;;28.10;99.90;;;;;;1856536;77;20465;-84
2021/09/19 08:46:47;;;;;;;;;;;28.10;99.90;;;;;;1828661;76;20556;-85
2021/09/19 08:49:21;;;;;;;;;;;28.00;99.90;;;;;;1829555;78;20152;-85
2021/09/19 08:51:51;;;;;;;;;;;27.80;99.90;;;;;;1847844;76;20182;-85
2021/09/19 08:54:21;;;;;;;;;;;27.80;99.90;;;;;;1863874;76;20223;-85
2021/09/19 08:56:51;;;;;;;;;;;27.80;99.90;;;;;;1870864;76;20164;-85
2021/09/19 09:02:47;;;;;;;;;;;27.80;99.90;;;;;;1870315;77;20172;-87
2021/09/19 09:05:19;;;;;;;;;;;27.80;99.90;;;;;;1829375;77;20215;-85
2021/09/19 09:07:51;;;;;;;;;;;27.80;99.90;;;;;;1841321;76;20261;-84
2021/09/19 09:10:22;;;;;;;;;;;27.90;99.90;;;;;;1837261;77;20126;-84
2021/09/19 09:16:00;;;;;;;;;;;27.90;99.90;;;;;;1838632;76;20196;-85
2021/09/19 09:18:31;;;;;;;;;;;27.90;99.90;;;;;;1848743;77;20217;-84
2021/09/19 09:21:03;;;;;;;;;;;27.90;99.90;;;;;;1807147;77;20485;-84
2021/09/19 09:23:34;;;;;;;;;;;27.90;99.90;;;;;;1824201;77;20408;-84
2021/09/19 09:29:02;;;;;;;;;;;28.00;99.90;;;;;;1846968;76;20250;-85
2021/09/19 09:31:33;;;;;;;;;;;28.00;99.90;;;;;;1843582;76;20177;-84
2021/09/19 09:34:04;;;;;;;;;;;28.00;99.90;;;;;;1801064;77;20490;-84
2021/09/19 09:36:35;;;;;;;;;;;28.00;99.90;;;;;;1818463;77;20191;-84
2021/09/19 09:39:06;;;;;;;;;;;28.10;99.90;;;;;;1843764;77;20301;-84
2021/09/19 09:41:37;;;;;;;;;;;28.10;99.90;;;;;;1828150;78;20127;-84
2021/09/19 09:44:09;;;;;;;;;;;28.10;99.90;;;;;;1847926;75;20195;-86
2021/09/19 09:49:38;;;;;;;;;;;28.00;99.90;;;;;;1823648;77;20427;-85
2021/09/19 09:52:08;;;;;;;;;;;27.90;99.90;;;;;;1830892;77;20578;-85
2021/09/19 09:54:40;;;;;;;;;;;27.80;99.90;;;;;;1835883;77;20199;-85
2021/09/19 09:57:10;;;;;;;;;;;27.70;99.90;;;;;;1833808;77;20161;-85
2021/09/19 09:59:41;;;;;;;;;;;27.60;99.90;;;;;;1827204;78;20133;-84
2021/09/19 10:05:11;;;;;;;;;;;27.60;99.90;;;;;;1806038;78;20511;-85
2021/09/19 10:07:42;;;;;;;;;;;27.50;99.90;;;;;;1833888;77;20181;-86
2021/09/19 10:10:13;;;;;;;;;;;27.50;99.90;;;;;;1856300;77;20216;-85
2021/09/19 10:12:44;;;;;;;;;;;27.50;99.90;;;;;;1823529;77;20211;-86
2021/09/19 10:15:14;;;;;;;;;;;27.60;99.90;;;;;;1840494;75;20242;-85
2021/09/19 10:17:44;;;;;;;;;;;27.60;99.80;;;;;;1833571;76;20192;-85
2021/09/19 10:23:10;;;;;;;;;;;27.50;99.90;;;;;;1805334;76;20202;-86
2021/09/19 10:28:37;;;;;;;;;;;27.40;99.90;;;;;;1788320;78;20219;-85
2021/09/19 10:31:11;;;;;;;;;;;27.40;99.90;;;;;;1823638;76;20228;-82
2021/09/19 10:33:40;;;;;;;;;;;27.40;99.90;;;;;;1804173;78;20182;-84
2021/09/19 10:36:11;;;;;;;;;;;27.40;99.90;;;;;;1798346;76;20521;-86
2021/09/19 10:38:41;;;;;;;;;;;27.30;99.90;;;;;;1801197;77;20446;-84
2021/09/19 10:41:12;;;;;;;;;;;27.30;99.90;;;;;;1845493;76;20386;-83
2021/09/19 10:43:43;;;;;;;;;;;27.30;99.90;;;;;;1808270;77;20225;-83
2021/09/19 10:46:13;;;;;;;;;;;27.30;99.90;;;;;;1838301;75;20556;-83
2021/09/19 10:48:43;;;;;;;;;;;27.30;99.90;;;;;;1837028;77;20207;-84
2021/09/19 10:51:12;;;;;;;;;;;27.20;99.90;;;;;;1771743;79;20390;-84
2021/09/19 10:53:44;;;;;;;;;;;27.20;99.90;;;;;;1845769;75;20209;-83
2021/09/19 10:56:14;;;;;;;;;;;27.10;99.90;;;;;;1870126;75;20202;-85
2021/09/19 10:58:45;;;;;;;;;;;27.10;99.90;;;;;;1856786;76;20241;-84
2021/09/19 11:01:16;;;;;;;;;;;27.10;99.90;;;;;;1869916;75;20485;-86
2021/09/19 11:03:45;;;;;;;;;;;27.10;99.90;;;;;;1869328;75;20446;-84
2021/09/19 11:12:27;;;;;;;;;;;27.00;99.90;;;;;;1852130;76;20225;-83
2021/09/19 11:14:57;;;;;;;;;;;26.90;99.90;;;;;;1814831;77;20180;-83
2021/09/19 11:17:28;;;;;;;;;;;26.90;99.90;;;;;;1834358;77;20160;-82
2021/09/19 11:19:59;;;;;;;;;;;26.90;99.50;;;;;;1854964;77;20197;-83
2021/09/19 11:22:28;;;;;;;;;;;26.90;99.70;;;;;;1821615;77;20158;-84
2021/09/19 11:24:59;;;;;;;;;;;26.90;99.90;;;;;;1819991;78;20259;-84
2021/09/19 11:27:30;;;;;;;;;;;27.00;99.90;;;;;;1839417;77;20186;-83
2021/09/19 11:30:00;;;;;;;;;;;27.00;99.70;;;;;;1811278;77;20174;-83
2021/09/19 11:32:31;;;;;;;;;;;27.00;99.90;;;;;;1819016;76;20234;-83
2021/09/19 11:35:02;;;;;;;;;;;27.00;99.90;;;;;;1865966;75;20211;-83
2021/09/19 11:37:31;;;;;;;;;;;27.00;99.90;;;;;;1872449;75;20180;-83
2021/09/19 11:40:07;;;;;;;;;;;27.00;99.90;;;;;;1835481;76;20402;-83
2021/09/19 11:42:38;;;;;;;;;;;27.00;99.90;;;;;;1861424;74;20694;-84
2021/09/19 11:45:09;;;;;;;;;;;27.00;99.90;;;;;;1832270;75;20245;-84
2021/09/19 11:47:40;;;;;;;;;;;26.90;99.90;;;;;;1857109;76;20228;-84
2021/09/19 11:50:09;;;;;;;;;;;26.90;99.90;;;;;;1851389;75;20200;-84
2021/09/19 11:52:43;;;;;;;;;;;26.80;99.90;;;;;;1851214;75;20493;-85
2021/09/19 11:55:15;;;;;;;;;;;26.80;99.90;;;;;;1828116;77;20655;-84
2021/09/19 11:57:53;;;;;;;;;;;26.80;99.90;;;;;;1827822;77;20187;-84
2021/09/19 12:03:29;;;;;;;;;;;26.80;99.90;;;;;;1829775;76;20227;-83
2021/09/19 12:06:00;;;;;;;;;;;26.70;99.90;;;;;;1827150;77;20211;-83
2021/09/19 12:08:31;;;;;;;;;;;26.70;99.90;;;;;;1837382;76;20454;-83
2021/09/19 12:11:01;;;;;;;;;;;26.60;99.90;;;;;;1828129;77;20219;-83
2021/09/19 12:13:32;;;;;;;;;;;26.60;99.90;;;;;;1829590;77;20236;-83
2021/09/19 12:16:03;;;;;;;;;;;26.60;99.90;;;;;;1827513;78;20234;-85
2021/09/19 12:21:29;;;;;;;;;;;26.60;99.90;;;;;;1835585;76;20199;-84
2021/09/19 12:23:59;;;;;;;;;;;26.50;99.90;;;;;;1828039;77;20263;-84
2021/09/19 12:29:38;;;;;;;;;;;26.50;99.90;;;;;;1833636;76;20552;-84
2021/09/19 12:32:08;;;;;;;;;;;26.60;99.90;;;;;;1839765;76;20211;-84
2021/09/19 12:34:38;;;;;;;;;;;26.60;99.90;;;;;;1820431;77;20486;-84
2021/09/19 12:37:09;;;;;;;;;;;26.60;99.90;;;;;;1813163;77;20538;-85
2021/09/19 12:39:39;;;;;;;;;;;26.60;99.90;;;;;;1799271;77;20212;-85
2021/09/19 12:42:09;;;;;;;;;;;26.70;99.90;;;;;;1804018;77;20139;-85
2021/09/19 12:44:42;;;;;;;;;;;26.70;99.90;;;;;;1806376;77;20426;-85
2021/09/19 12:47:13;;;;;;;;;;;26.70;99.90;;;;;;1824586;76;20224;-86
2021/09/19 12:49:48;;;;;;;;;;;26.70;99.90;;;;;;1871412;73;20147;-86
2021/09/19 12:52:16;;;;;;;;;;;26.70;99.90;;;;;;1869774;74;20239;-85
2021/09/19 12:55:04;;;;;;;;;;;26.70;99.90;;;;;;1873816;74;20394;-85
2021/09/19 12:57:34;;;;;;;;;;;26.70;99.90;;;;;;1862256;74;20125;-84
2021/09/19 13:00:05;;;;;;;;;;;26.60;99.90;;;;;;1905261;74;20202;-84
2021/09/19 13:02:34;;;;;;;;;;;26.60;99.90;;;;;;1829230;76;20209;-85
2021/09/19 13:05:05;;;;;;;;;;;26.60;99.90;;;;;;1861886;75;20149;-83
2021/09/19 13:07:37;;;;;;;;;;;26.50;99.90;;;;;;1864243;75;20309;-86
2021/09/19 13:10:08;;;;;;;;;;;26.50;99.90;;;;;;1865596;75;20238;-85
2021/09/19 13:12:37;;;;;;;;;;;26.50;99.90;;;;;;1874298;75;20203;-85
2021/09/19 13:18:04;;;;;;;;;;;26.50;99.90;;;;;;1879349;74;20140;-86
2021/09/19 13:20:35;;;;;;;;;;;26.50;99.90;;;;;;1865415;75;20163;-84
2021/09/19 13:29:05;;;;;;;;;;;26.50;99.90;;;;;;1831689;77;20466;-84
2021/09/19 13:31:37;;;;;;;;;;;26.50;99.90;;;;;;1842797;77;20492;-85
2021/09/19 13:34:07;;;;;;;;;;;26.50;99.90;;;;;;1837161;77;20184;-84
2021/09/19 13:36:40;;;;;;;;;;;26.50;99.90;;;;;;1830610;77;20499;-85
2021/09/19 13:39:17;;;;;;;;;;;26.50;99.90;;;;;;1841668;77;20637;-85
2021/09/19 13:41:43;;;;;;;;;;;26.40;99.90;;;;;;1830939;77;20223;-83
2021/09/19 13:44:13;;;;;;;;;;;26.40;99.90;;;;;;1834405;77;20150;-84
2021/09/19 13:46:43;;;;;;;;;;;26.40;99.90;;;;;;1820655;77;20253;-83
2021/09/19 13:49:14;;;;;;;;;;;26.40;99.90;;;;;;1838962;77;20241;-85
2021/09/19 13:51:44;;;;;;;;;;;26.40;99.90;;;;;;1833581;77;20145;-85
2021/09/19 13:57:21;;;;;;;;;;;26.40;99.90;;;;;;1830745;77;20169;-84
2021/09/19 13:59:50;;;;;;;;;;;26.40;99.90;;;;;;1820334;78;20223;-83
2021/09/19 14:02:19;;;;;;;;;;;26.40;99.90;;;;;;1823075;77;20191;-84
2021/09/19 14:04:49;;;;;;;;;;;26.40;99.90;;;;;;1854934;76;20225;-84
2021/09/19 14:07:19;;;;;;;;;;;26.40;99.90;;;;;;1849542;77;20317;-84
2021/09/19 14:12:58;;;;;;;;;;;26.30;99.90;;;;;;1842187;77;20580;-85
2021/09/19 14:15:28;;;;;;;;;;;26.30;99.90;;;;;;1831323;75;20191;-86
2021/09/19 14:17:58;;;;;;;;;;;26.30;99.90;;;;;;1848743;75;20180;-85
2021/09/19 14:20:27;;;;;;;;;;;26.30;99.90;;;;;;1831669;77;20228;-84
2021/09/19 14:22:59;;;;;;;;;;;26.30;99.90;;;;;;1827388;77;20210;-82
2021/09/19 14:25:28;;;;;;;;;;;26.30;99.90;;;;;;1849739;77;20207;-85
2021/09/19 14:27:58;;;;;;;;;;;26.30;99.90;;;;;;1847662;75;20710;-85
2021/09/19 14:30:28;;;;;;;;;;;26.30;99.90;;;;;;1853053;75;20249;-84
2021/09/19 14:32:58;;;;;;;;;;;26.30;99.90;;;;;;1839249;76;20589;-84
2021/09/19 14:35:27;;;;;;;;;;;26.30;99.90;;;;;;1804873;78;20446;-84
2021/09/19 14:37:57;;;;;;;;;;;26.30;99.90;;;;;;1806225;77;20569;-85
2021/09/19 14:40:26;;;;;;;;;;;26.30;99.90;;;;;;1853160;76;20118;-85
2021/09/19 14:42:56;;;;;;;;;;;26.20;99.90;;;;;;1820994;77;20188;-85
2021/09/19 14:48:26;;;;;;;;;;;26.30;99.90;;;;;;1843710;76;20192;-83
2021/09/19 14:50:55;;;;;;;;;;;26.20;99.90;;;;;;1861254;76;20252;-84
2021/09/19 14:53:24;;;;;;;;;;;26.20;99.90;;;;;;1821863;76;20764;-84
2021/09/19 14:55:54;;;;;;;;;;;26.20;99.90;;;;;;1841682;76;20655;-85
2021/09/19 14:58:23;;;;;;;;;;;26.30;99.90;;;;;;1855370;77;20536;-84
2021/09/19 15:00:53;;;;;;;;;;;26.20;99.90;;;;;;1873155;75;20191;-83
2021/09/19 15:03:26;;;;;;;;;;;26.20;99.90;;;;;;1864947;75;20168;-84
2021/09/19 15:05:54;;;;;;;;;;;26.30;99.90;;;;;;1872967;77;20242;-84
2021/09/19 15:08:23;;;;;;;;;;;26.30;99.90;;;;;;1862338;77;20213;-83
2021/09/19 15:10:53;;;;;;;;;;;26.30;99.90;;;;;;1869291;75;20471;-85
2021/09/19 15:13:22;;;;;;;;;;;26.30;99.90;;;;;;1866977;75;20199;-83
2021/09/19 15:15:52;;;;;;;;;;;26.30;99.90;;;;;;1862548;77;20151;-83
2021/09/19 15:18:23;;;;;;;;;;;26.20;99.90;;;;;;1866696;75;20187;-85
2021/09/19 15:20:55;;;;;;;;;;;26.20;99.90;;;;;;1869145;75;20716;-84
2021/09/19 15:23:28;;;;;;;;;;;26.20;99.90;;;;;;1872996;77;20195;-83
2021/09/19 15:25:57;;;;;;;;;;;26.20;99.90;;;;;;1872671;75;20220;-83
2021/09/19 15:28:26;;;;;;;;;;;26.30;99.90;;;;;;1860243;75;20240;-83
2021/09/19 15:30:56;;;;;;;;;;;26.30;99.90;;;;;;1878115;75;20119;-85
2021/09/19 15:36:24;;;;;;;;;;;26.30;99.90;;;;;;1883775;75;20196;-84
2021/09/19 15:41:44;;;;;;;;;;;26.20;99.90;;;;;;1835390;77;20188;-84
2021/09/19 15:44:14;;;;;;;;;;;26.30;99.90;;;;;;1835148;77;20232;-85
2021/09/19 15:46:46;;;;;;;;;;;26.30;99.90;;;;;;1835993;77;20206;-84
2021/09/19 15:49:17;;;;;;;;;;;26.30;99.90;;;;;;1823826;77;20176;-83
2021/09/19 15:51:52;;;;;;;;;;;26.30;99.90;;;;;;1822048;78;20188;-83
2021/09/19 15:54:19;;;;;;;;;;;26.40;99.90;;;;;;1808959;78;20372;-84
2021/09/19 15:56:49;;;;;;;;;;;26.40;99.90;;;;;;1776670;78;20585;-84
2021/09/19 15:59:20;;;;;;;;;;;26.40;99.90;;;;;;1835108;77;20185;-83
2021/09/19 16:01:49;;;;;;;;;;;26.50;99.90;;;;;;1830009;77;20212;-83
2021/09/19 16:04:19;;;;;;;;;;;26.50;99.90;;;;;;1824271;77;20259;-83
2021/09/19 16:06:49;;;;;;;;;;;26.50;99.90;;;;;;1839963;77;20477;-85
2021/09/19 16:09:19;;;;;;;;;;;26.60;99.90;;;;;;1829020;77;20145;-83
2021/09/19 16:11:48;;;;;;;;;;;26.60;99.90;;;;;;1828841;77;20192;-84
2021/09/19 16:14:18;;;;;;;;;;;26.60;99.90;;;;;;1820685;79;20172;-83
2021/09/19 16:16:48;;;;;;;;;;;26.60;99.90;;;;;;1826414;77;20244;-81
2021/09/19 16:19:18;;;;;;;;;;;26.60;99.90;;;;;;1857553;74;20437;-83
2021/09/19 16:21:48;;;;;;;;;;;26.50;99.90;;;;;;1870069;75;20215;-84
2021/09/19 16:27:28;;;;;;;;;;;26.50;99.90;;;;;;1881870;75;20195;-83
2021/09/19 16:29:57;;;;;;;;;;;26.40;99.90;;;;;;1868616;75;20259;-83
2021/09/19 16:32:28;;;;;;;;;;;26.40;99.90;;;;;;1863030;75;20161;-84
2021/09/19 16:34:58;;;;;;;;;;;26.40;99.90;;;;;;1842472;78;20425;-84
2021/09/19 16:40:41;;;;;;;;;;;26.40;99.90;;;;;;1859850;77;20121;-85
2021/09/19 16:43:09;;;;;;;;;;;26.40;99.90;;;;;;1859849;76;20287;-85
2021/09/19 16:45:40;;;;;;;;;;;26.30;99.90;;;;;;1860591;77;20170;-84
2021/09/19 16:48:12;;;;;;;;;;;26.30;99.90;;;;;;1867422;77;20175;-84
2021/09/19 16:50:45;;;;;;;;;;;26.30;99.90;;;;;;1863093;77;20220;-85
2021/09/19 16:53:13;;;;;;;;;;;26.20;99.90;;;;;;1858457;75;20296;-84
2021/09/19 16:55:48;;;;;;;;;;;26.20;99.90;;;;;;1859227;77;20174;-84